createdAt,value
2023-03-29T15:33:20.001Z,15.97
2023-03-29T15:35:51.150Z,15.96
2023-03-29T15:38:23.404Z,15.90
2023-03-29T15:40:54.635Z,16.08
2023-03-29T15:43:22.725Z,16.12
2023-03-29T15:45:50.241Z,16.19
2023-03-29T15:48:21.476Z,16.09
2023-03-29T15:50:49.070Z,16.15
2023-03-29T15:53:20.790Z,16.19
2023-03-29T15:55:53.993Z,16.10
2023-03-29T15:58:30.512Z,16.03
2023-03-29T16:01:23.302Z,16.08
2023-03-29T16:03:51.847Z,15.93
2023-03-29T16:06:18.434Z,16.18
2023-03-29T16:08:46.311Z,16.00
2023-03-29T16:11:14.049Z,16.00
2023-03-29T16:13:40.718Z,15.92
2023-03-29T16:16:10.559Z,15.98
2023-03-29T16:18:37.583Z,15.97
2023-03-29T16:21:04.808Z,15.94
2023-03-29T16:23:31.315Z,15.97
2023-03-29T16:25:59.200Z,15.85
2023-03-29T16:28:25.715Z,15.84
2023-03-29T16:30:52.571Z,15.71
2023-03-29T16:33:21.248Z,15.75
2023-03-29T16:35:48.966Z,15.69
2023-03-29T16:38:16.609Z,15.65
2023-03-29T16:40:43.619Z,15.46
2023-03-29T16:43:15.993Z,15.39
2023-03-29T16:45:42.601Z,15.32
2023-03-29T16:48:18.023Z,15.25
2023-03-29T16:50:50.906Z,15.30
2023-03-29T16:53:18.535Z,15.23
2023-03-29T16:55:48.703Z,15.17
2023-03-29T16:58:15.453Z,15.07
2023-03-29T17:00:46.391Z,15.15
2023-03-29T17:03:17.637Z,15.01
2023-03-29T17:05:48.533Z,14.96
2023-03-29T17:08:15.372Z,14.94
2023-03-29T17:10:42.496Z,14.83
2023-03-29T17:13:12.402Z,14.80
2023-03-29T17:15:40.162Z,14.70
2023-03-29T17:18:07.454Z,14.68
2023-03-29T17:20:36.826Z,14.58
2023-03-29T17:23:10.621Z,14.42
2023-03-29T17:25:37.374Z,14.31
2023-03-29T17:28:04.075Z,14.47
2023-03-29T17:30:33.175Z,14.29
2023-03-29T17:33:00.100Z,14.22
2023-03-29T17:35:28.620Z,14.14
2023-03-29T17:37:57.652Z,14.06
2023-03-29T17:40:24.739Z,14.14
2023-03-29T17:42:55.274Z,14.05
2023-03-29T17:45:22.357Z,14.07
2023-03-29T17:47:48.979Z,13.80
2023-03-29T17:50:16.911Z,13.77
2023-03-29T17:52:43.598Z,13.54
2023-03-29T17:55:13.403Z,13.67
2023-03-29T17:57:43.404Z,13.65
2023-03-29T18:00:13.603Z,13.53
2023-03-29T18:02:42.704Z,13.40
2023-03-29T18:05:10.704Z,13.38
2023-03-29T18:07:39.767Z,13.27
2023-03-29T18:10:09.498Z,13.33
2023-03-29T18:12:36.569Z,13.38
2023-03-29T18:15:04.115Z,13.23
2023-03-29T18:17:34.548Z,13.02
2023-03-29T18:20:01.478Z,13.24
2023-03-29T18:22:28.910Z,13.29
2023-03-29T18:24:56.312Z,13.23
2023-03-29T18:27:22.960Z,13.39
2023-03-29T18:29:49.565Z,13.32
2023-03-29T18:32:17.013Z,13.46
2023-03-29T18:34:43.656Z,13.35
2023-03-29T18:37:14.872Z,13.24
2023-03-29T18:39:42.845Z,13.09
2023-03-29T18:42:11.636Z,12.96
2023-03-29T18:44:40.597Z,13.05
2023-03-29T18:47:11.478Z,13.08
2023-03-29T18:49:38.033Z,13.08
2023-03-29T18:52:06.460Z,12.92
2023-03-29T18:54:33.669Z,13.06
2023-03-29T18:57:02.050Z,12.85
2023-03-29T18:59:29.153Z,12.99
2023-03-29T19:01:56.011Z,13.02
2023-03-29T19:04:26.834Z,13.05
2023-03-29T19:06:55.433Z,13.31
2023-03-29T19:09:23.250Z,13.04
2023-03-29T19:11:49.714Z,13.14
2023-03-29T19:14:23.348Z,13.06
2023-03-29T19:16:51.582Z,13.12
2023-03-29T19:19:21.317Z,13.10
2023-03-29T19:21:51.383Z,13.10
2023-03-29T19:24:18.359Z,13.13
2023-03-29T19:26:47.798Z,13.10
2023-03-29T19:29:15.678Z,13.12
2023-03-29T19:31:43.118Z,13.13
2023-03-29T19:34:10.986Z,13.05
2023-03-29T19:36:39.609Z,13.03
2023-03-29T19:39:07.029Z,13.06
2023-03-29T19:41:35.265Z,13.20
2023-03-29T19:44:02.122Z,13.19
2023-03-29T19:46:28.931Z,13.08
2023-03-29T19:48:56.163Z,13.19
2023-03-29T19:51:23.524Z,13.15
2023-03-29T19:53:53.997Z,12.92
2023-03-29T19:56:23.357Z,13.03
2023-03-29T19:58:52.815Z,12.89
2023-03-29T20:01:21.019Z,12.75
2023-03-29T20:03:49.127Z,12.91
2023-03-29T20:06:16.797Z,13.05
2023-03-29T20:08:44.114Z,12.88
2023-03-29T20:11:16.422Z,12.95
2023-03-29T20:13:44.752Z,12.89
2023-03-29T20:16:15.008Z,13.16
2023-03-29T20:18:44.615Z,13.10
2023-03-29T20:21:17.019Z,13.09
2023-03-29T20:23:44.030Z,13.01
2023-03-29T20:26:10.584Z,12.99
2023-03-29T20:28:37.745Z,12.91
2023-03-29T20:31:06.866Z,12.84
2023-03-29T20:33:33.733Z,13.00
2023-03-29T20:36:00.452Z,13.03
2023-03-29T20:38:28.489Z,12.99
2023-03-29T20:40:56.354Z,12.84
2023-03-29T20:43:29.430Z,13.10
2023-03-29T20:45:56.175Z,12.91
2023-03-29T20:48:24.293Z,12.84
2023-03-29T20:50:51.450Z,12.79
2023-03-29T20:53:20.295Z,12.75
2023-03-29T20:55:47.688Z,12.87
2023-03-29T20:58:15.606Z,12.80
2023-03-29T21:00:43.571Z,13.05
2023-03-29T21:03:11.039Z,13.17
2023-03-29T21:05:39.002Z,13.24
2023-03-29T21:08:06.545Z,13.04
2023-03-29T21:10:33.499Z,12.94
2023-03-29T21:13:00.547Z,13.05
2023-03-29T21:15:30.553Z,12.97
2023-03-29T21:17:57.642Z,13.04
2023-03-29T21:20:24.194Z,12.94
2023-03-29T21:22:51.545Z,12.94
2023-03-29T21:25:18.820Z,12.93
2023-03-29T21:27:45.831Z,12.88
2023-03-29T21:30:12.549Z,12.80
2023-03-29T21:32:40.408Z,12.77
2023-03-29T21:35:07.911Z,12.81
2023-03-29T21:37:34.737Z,12.83
2023-03-29T21:40:05.463Z,12.72
2023-03-29T21:42:33.480Z,12.34
2023-03-29T21:45:02.569Z,12.10
2023-03-29T21:47:29.516Z,12.29
2023-03-29T21:49:56.379Z,12.61
2023-03-29T21:52:24.038Z,12.32
2023-03-29T21:54:50.510Z,12.47
2023-03-29T21:57:17.323Z,12.34
2023-03-29T21:59:43.975Z,12.27
2023-03-29T22:02:10.773Z,12.03
2023-03-29T22:04:37.793Z,12.12
2023-03-29T22:07:05.527Z,12.07
2023-03-29T22:09:34.889Z,12.22
2023-03-29T22:12:02.887Z,12.15
2023-03-29T22:14:34.560Z,12.22
2023-03-29T22:17:06.716Z,12.27
2023-03-29T22:19:39.119Z,12.19
2023-03-29T22:22:07.266Z,12.01
2023-03-29T22:24:33.808Z,11.78
2023-03-29T22:27:00.670Z,11.73
2023-03-29T22:29:27.544Z,11.58
2023-03-29T22:31:55.020Z,11.46
2023-03-29T22:34:22.360Z,11.71
2023-03-29T22:36:49.666Z,11.59
2023-03-29T22:39:16.886Z,11.64
2023-03-29T22:41:43.563Z,11.36
2023-03-29T22:44:13.020Z,11.43
2023-03-29T22:46:39.479Z,11.39
2023-03-29T22:49:06.553Z,11.34
2023-03-29T22:51:33.045Z,11.20
2023-03-29T22:53:59.771Z,11.31
2023-03-29T22:56:27.068Z,11.29
2023-03-29T22:58:53.722Z,11.41
2023-03-29T23:01:20.208Z,11.31
2023-03-29T23:03:47.260Z,11.16
2023-03-29T23:06:13.693Z,11.13
2023-03-29T23:08:41.206Z,11.21
2023-03-29T23:11:08.222Z,11.09
2023-03-29T23:13:36.024Z,11.15
2023-03-29T23:16:03.901Z,11.06
2023-03-29T23:18:32.045Z,11.19
2023-03-29T23:20:58.977Z,11.16
2023-03-29T23:23:27.237Z,11.12
2023-03-29T23:25:55.969Z,11.33
2023-03-29T23:28:26.908Z,11.64
2023-03-29T23:31:02.745Z,11.57
2023-03-29T23:33:33.324Z,11.42
2023-03-29T23:36:01.381Z,11.40
2023-03-29T23:38:27.865Z,11.30
2023-03-29T23:40:58.676Z,11.63
2023-03-29T23:43:33.161Z,12.42
2023-03-29T23:46:05.036Z,12.56
2023-03-29T23:48:32.517Z,12.66
2023-03-29T23:50:59.155Z,12.56
2023-03-29T23:53:28.381Z,12.73
2023-03-29T23:55:58.125Z,12.70
2023-03-29T23:58:25.341Z,12.73
